Time;durP1;ratioP1;P1;durP2;ratioP2;P2;SDS_P1;SDS_P2;PMS_P1;PMS_P2;Temp;Humidity;BMP_temperature;BMP_pressure;BME280_temperature;BME280_humidity;BME280_pressure;Samples;Min_cycle;Max_cycle;Signal;HPM_P1;HPM_P2
2024/01/26 00:01:09;;;;;;;13.93;3.53;;;5.50;99.90;;;;;;5007480;28;20316;-72
2024/01/26 00:03:36;;;;;;;9.60;3.83;;;5.40;99.90;;;;;;5006651;28;20289;-72
2024/01/26 00:06:04;;;;;;;12.87;3.20;;;5.40;99.90;;;;;;5009561;28;20275;-72
2024/01/26 00:08:32;;;;;;;13.20;3.67;;;5.40;99.90;;;;;;5008747;28;20628;-72
2024/01/26 00:10:59;;;;;;;13.60;3.37;;;5.40;99.90;;;;;;5007972;28;20297;-72
2024/01/26 00:13:26;;;;;;;13.97;3.43;;;5.20;99.90;;;;;;5007785;28;20553;-72
2024/01/26 00:15:53;;;;;;;14.40;3.57;;;5.10;99.90;;;;;;5014688;28;20197;-71
2024/01/26 00:18:19;;;;;;;13.20;3.50;;;4.90;99.90;;;;;;5023969;28;20296;-70
2024/01/26 00:20:46;;;;;;;10.53;3.47;;;4.70;99.90;;;;;;5007927;28;20299;-70
2024/01/26 00:23:13;;;;;;;11.57;3.60;;;4.80;99.90;;;;;;5007432;28;20631;-70
2024/01/26 00:25:41;;;;;;;15.77;4.23;;;4.80;99.90;;;;;;5007093;28;20225;-70
2024/01/26 00:28:08;;;;;;;12.00;3.80;;;4.80;99.90;;;;;;5007582;28;20233;-70
2024/01/26 00:30:36;;;;;;;12.13;3.50;;;4.80;99.90;;;;;;5007000;28;20231;-70
2024/01/26 00:33:03;;;;;;;10.60;3.87;;;4.90;99.90;;;;;;5015761;28;20659;-72
2024/01/26 00:35:30;;;;;;;18.10;4.57;;;5.00;99.90;;;;;;5006963;28;20232;-71
2024/01/26 00:37:57;;;;;;;11.03;4.13;;;5.00;99.90;;;;;;5007108;28;20656;-71
2024/01/26 00:40:24;;;;;;;14.90;3.93;;;5.00;99.90;;;;;;5007123;28;20296;-71
2024/01/26 00:42:52;;;;;;;11.63;4.07;;;5.10;99.90;;;;;;5008530;28;20229;-71
2024/01/26 00:45:19;;;;;;;13.00;3.80;;;5.10;99.90;;;;;;5025748;28;20284;-71
2024/01/26 00:47:46;;;;;;;14.60;3.90;;;5.10;99.90;;;;;;5019073;28;20226;-71
2024/01/26 00:50:12;;;;;;;13.17;4.57;;;5.10;99.90;;;;;;5007196;28;20292;-71
2024/01/26 00:52:39;;;;;;;12.23;3.40;;;5.10;99.90;;;;;;5006801;28;20332;-71
2024/01/26 00:55:06;;;;;;;12.90;3.77;;;5.20;99.90;;;;;;4998584;28;20245;-71
2024/01/26 00:57:33;;;;;;;11.47;3.60;;;5.10;99.90;;;;;;5007072;28;20206;-73
2024/01/26 01:00:07;;;;;;;12.73;4.23;;;5.10;99.90;;;;;;5007244;28;21122;-73
2024/01/26 01:02:34;;;;;;;16.13;3.90;;;5.10;99.90;;;;;;5019772;28;20234;-71
2024/01/26 01:05:01;;;;;;;14.43;4.07;;;5.10;99.90;;;;;;5025838;28;20292;-71
2024/01/26 01:07:28;;;;;;;12.13;4.23;;;5.10;99.90;;;;;;5026595;28;20236;-71
2024/01/26 01:09:55;;;;;;;12.03;3.63;;;5.10;99.90;;;;;;5026927;28;20212;-71
2024/01/26 01:12:22;;;;;;;11.00;3.40;;;5.10;99.90;;;;;;5026590;28;20232;-71
2024/01/26 01:14:48;;;;;;;11.10;4.10;;;5.10;99.90;;;;;;5028190;28;20287;-71
2024/01/26 01:17:17;;;;;;;12.10;3.20;;;5.10;99.90;;;;;;5030445;28;20196;-71
2024/01/26 01:19:43;;;;;;;11.37;3.50;;;5.10;99.90;;;;;;5030848;28;20308;-71
2024/01/26 01:22:10;;;;;;;12.83;3.87;;;5.00;99.90;;;;;;5030638;28;20240;-71
2024/01/26 01:24:37;;;;;;;13.37;4.10;;;5.10;99.90;;;;;;5023222;28;20296;-73
2024/01/26 01:27:05;;;;;;;14.83;3.77;;;5.10;99.90;;;;;;5011129;28;20212;-73
2024/01/26 01:29:31;;;;;;;12.60;3.67;;;5.00;99.90;;;;;;5018364;28;20584;-73
2024/01/26 01:31:58;;;;;;;13.30;4.30;;;5.00;99.90;;;;;;5030606;28;20204;-73
2024/01/26 01:34:26;;;;;;;15.50;3.90;;;5.00;99.90;;;;;;5030283;28;20304;-73
2024/01/26 01:36:53;;;;;;;8.60;3.63;;;5.00;99.90;;;;;;5029986;28;20644;-73
2024/01/26 01:39:20;;;;;;;10.03;3.77;;;5.00;99.90;;;;;;5030005;28;20327;-73
2024/01/26 01:41:48;;;;;;;17.20;4.40;;;4.90;99.90;;;;;;5030189;28;20335;-73
2024/01/26 01:44:15;;;;;;;10.97;3.50;;;4.90;99.90;;;;;;5022491;28;20212;-73
2024/01/26 01:46:42;;;;;;;12.37;3.50;;;4.80;99.90;;;;;;5010452;28;20656;-73
2024/01/26 01:49:09;;;;;;;10.97;3.63;;;4.80;99.90;;;;;;5010544;28;20229;-73
2024/01/26 01:51:38;;;;;;;11.37;3.80;;;4.80;99.90;;;;;;5009908;28;20293;-73
2024/01/26 01:54:07;;;;;;;12.90;3.67;;;4.80;99.90;;;;;;5015946;28;20201;-72
2024/01/26 01:56:35;;;;;;;12.30;4.13;;;4.80;99.90;;;;;;5010213;28;20240;-72
2024/01/26 01:59:04;;;;;;;10.60;3.90;;;4.80;99.90;;;;;;5010132;28;20735;-72
2024/01/26 02:01:31;;;;;;;12.13;4.13;;;4.70;99.90;;;;;;5010205;28;20248;-72
2024/01/26 02:04:01;;;;;;;8.93;3.80;;;4.80;99.90;;;;;;5013612;28;20205;-73
2024/01/26 02:06:28;;;;;;;10.87;3.50;;;4.80;99.90;;;;;;5018486;28;20189;-72
2024/01/26 02:08:56;;;;;;;9.07;3.70;;;4.80;99.90;;;;;;5030412;28;20322;-72
2024/01/26 02:11:24;;;;;;;12.07;3.60;;;4.70;99.90;;;;;;5029736;28;20664;-72
2024/01/26 02:13:50;;;;;;;17.30;4.47;;;4.70;99.90;;;;;;5029916;28;20204;-72
2024/01/26 02:16:17;;;;;;;11.03;4.00;;;4.70;99.90;;;;;;5029416;28;20209;-72
2024/01/26 02:18:44;;;;;;;13.30;4.00;;;4.70;99.90;;;;;;5017008;28;20738;-72
2024/01/26 02:21:11;;;;;;;11.10;3.80;;;4.70;99.90;;;;;;5009757;28;20205;-72
2024/01/26 02:23:41;;;;;;;11.67;3.83;;;4.70;99.90;;;;;;5009841;28;20206;-72
2024/01/26 02:26:09;;;;;;;11.17;3.37;;;4.70;99.90;;;;;;4990169;28;20194;-72
2024/01/26 02:28:36;;;;;;;11.23;3.80;;;4.70;99.90;;;;;;4990281;28;20296;-72
2024/01/26 02:31:03;;;;;;;12.53;3.90;;;4.60;99.90;;;;;;5006001;28;20210;-72
2024/01/26 02:33:29;;;;;;;13.83;4.27;;;4.60;99.90;;;;;;5009728;28;20288;-72
2024/01/26 02:35:56;;;;;;;10.23;3.93;;;4.60;99.90;;;;;;5009728;28;20296;-72
2024/01/26 02:38:23;;;;;;;9.87;4.07;;;4.60;99.90;;;;;;5009309;28;20348;-72
2024/01/26 02:40:51;;;;;;;12.70;3.83;;;4.60;99.90;;;;;;5009147;28;20304;-72
2024/01/26 02:43:18;;;;;;;12.83;3.67;;;4.60;99.90;;;;;;5024509;28;20232;-71
2024/01/26 02:45:46;;;;;;;14.33;4.43;;;4.50;99.90;;;;;;5029034;28;20288;-71
2024/01/26 02:48:13;;;;;;;13.60;4.10;;;4.40;99.90;;;;;;5010760;28;20216;-71
2024/01/26 02:50:40;;;;;;;12.43;4.53;;;4.40;99.90;;;;;;5009435;28;20300;-71
2024/01/26 02:53:07;;;;;;;8.50;3.90;;;4.30;99.90;;;;;;5008743;28;20248;-71
2024/01/26 02:55:34;;;;;;;8.00;3.60;;;4.30;99.90;;;;;;5021955;28;20687;-71
2024/01/26 02:58:02;;;;;;;13.93;3.90;;;4.40;99.90;;;;;;5028875;28;20312;-71
2024/01/26 03:00:29;;;;;;;10.57;4.03;;;4.30;99.90;;;;;;5028776;28;20292;-71
2024/01/26 03:02:56;;;;;;;16.67;4.10;;;4.30;99.90;;;;;;5029081;28;20266;-71
2024/01/26 03:05:23;;;;;;;9.47;4.33;;;4.40;99.90;;;;;;5028341;28;20351;-71
2024/01/26 03:07:50;;;;;;;8.83;4.00;;;4.40;99.90;;;;;;5009056;28;20204;-71
2024/01/26 03:10:17;;;;;;;11.23;3.97;;;4.40;99.90;;;;;;5008968;28;20237;-71
2024/01/26 03:12:43;;;;;;;11.67;4.03;;;4.40;99.90;;;;;;5009371;28;20304;-71
2024/01/26 03:15:12;;;;;;;10.87;4.20;;;4.40;99.90;;;;;;5009322;28;20288;-71
2024/01/26 03:17:38;;;;;;;12.67;3.93;;;4.40;99.90;;;;;;5014540;28;20204;-71
2024/01/26 03:20:08;;;;;;;11.77;3.87;;;4.40;99.90;;;;;;5028332;28;20204;-71
2024/01/26 03:22:35;;;;;;;9.50;4.00;;;4.40;99.90;;;;;;5028280;28;20274;-71
2024/01/26 03:25:03;;;;;;;15.93;3.97;;;4.40;99.90;;;;;;5011345;28;20206;-71
2024/01/26 03:27:30;;;;;;;13.00;4.07;;;4.40;99.90;;;;;;5008637;28;20220;-71
2024/01/26 03:29:57;;;;;;;12.57;4.90;;;4.40;99.90;;;;;;5008574;28;20234;-71
2024/01/26 03:32:25;;;;;;;12.57;4.53;;;4.40;99.90;;;;;;5008520;28;20213;-71
2024/01/26 03:34:52;;;;;;;11.30;4.17;;;4.40;99.90;;;;;;5008548;28;20210;-71
2024/01/26 03:37:19;;;;;;;10.43;4.80;;;4.40;99.90;;;;;;5007471;28;20237;-71
2024/01/26 03:39:46;;;;;;;12.10;4.80;;;4.40;99.90;;;;;;5007485;28;20297;-71
2024/01/26 03:42:13;;;;;;;9.13;4.20;;;4.50;99.90;;;;;;5008466;28;20304;-71
2024/01/26 03:44:41;;;;;;;11.07;4.53;;;4.50;99.90;;;;;;5008686;28;20300;-71
2024/01/26 03:47:08;;;;;;;11.87;4.43;;;4.50;99.90;;;;;;5007857;28;20676;-71
2024/01/26 03:49:36;;;;;;;12.53;4.20;;;4.40;99.90;;;;;;5024383;28;20665;-71
2024/01/26 03:52:04;;;;;;;11.53;3.70;;;4.50;99.90;;;;;;5008147;28;20239;-71
2024/01/26 03:54:31;;;;;;;15.40;4.50;;;4.50;99.90;;;;;;5008241;28;20309;-71
2024/01/26 03:56:58;;;;;;;11.37;4.90;;;4.50;99.90;;;;;;5008282;28;20248;-71
2024/01/26 03:59:25;;;;;;;9.97;4.17;;;4.50;99.90;;;;;;5009310;28;20742;-71
2024/01/26 04:01:51;;;;;;;12.17;4.40;;;4.50;99.90;;;;;;5027431;28;20203;-71
2024/01/26 04:04:19;;;;;;;10.03;4.30;;;4.40;99.90;;;;;;5028034;28;20320;-70
2024/01/26 04:06:48;;;;;;;12.17;4.17;;;4.40;99.90;;;;;;5027685;28;20209;-70
2024/01/26 04:09:15;;;;;;;10.43;4.50;;;4.40;99.90;;;;;;5027667;28;20229;-70
2024/01/26 04:11:41;;;;;;;11.47;4.70;;;4.40;99.90;;;;;;5023281;28;20220;-71
2024/01/26 04:14:08;;;;;;;12.70;5.00;;;4.40;99.90;;;;;;5008122;28;20297;-71
2024/01/26 04:16:35;;;;;;;12.40;4.67;;;4.40;99.90;;;;;;5007617;28;20288;-71
2024/01/26 04:19:02;;;;;;;11.37;4.63;;;4.40;99.90;;;;;;5007902;28;20325;-72
2024/01/26 04:21:29;;;;;;;12.37;4.87;;;4.40;99.90;;;;;;5008005;28;20693;-71
2024/01/26 04:23:58;;;;;;;10.13;4.47;;;4.40;99.90;;;;;;5001989;28;20302;-71
2024/01/26 04:26:25;;;;;;;9.10;4.00;;;4.40;99.90;;;;;;5005534;28;20289;-71
2024/01/26 04:28:51;;;;;;;9.43;4.10;;;4.40;99.90;;;;;;5005203;28;20364;-71
2024/01/26 04:31:22;;;;;;;14.33;4.53;;;4.40;99.90;;;;;;5004879;28;20209;-71
2024/01/26 04:33:48;;;;;;;11.30;4.63;;;4.40;99.90;;;;;;5005088;28;20217;-72
2024/01/26 04:36:16;;;;;;;10.60;4.30;;;4.40;99.90;;;;;;5024575;28;20295;-71
2024/01/26 04:38:43;;;;;;;12.63;4.40;;;4.40;99.90;;;;;;5024572;28;20225;-71
2024/01/26 04:41:11;;;;;;;13.53;4.70;;;4.40;99.90;;;;;;5025677;28;20287;-72
2024/01/26 04:43:38;;;;;;;11.83;4.63;;;4.40;99.90;;;;;;5026403;28;20219;-72
2024/01/26 04:46:05;;;;;;;9.40;4.30;;;4.40;99.90;;;;;;5021921;28;20229;-72
2024/01/26 04:48:32;;;;;;;13.23;4.67;;;4.40;99.90;;;;;;5005456;28;20209;-71
2024/01/26 04:50:59;;;;;;;11.43;4.67;;;4.40;99.90;;;;;;5004741;28;20331;-71
2024/01/26 04:53:26;;;;;;;9.33;4.00;;;4.40;99.90;;;;;;5004639;28;20237;-72
2024/01/26 04:55:54;;;;;;;11.73;4.10;;;4.40;99.90;;;;;;5021750;28;20274;-71
2024/01/26 04:58:22;;;;;;;14.13;5.00;;;4.40;99.90;;;;;;5005151;28;20244;-72
2024/01/26 05:00:49;;;;;;;10.13;4.90;;;4.40;99.90;;;;;;5007727;28;20221;-71
2024/01/26 05:03:16;;;;;;;9.13;4.97;;;4.40;99.90;;;;;;5009786;28;20400;-71
2024/01/26 05:05:44;;;;;;;15.83;5.47;;;4.40;99.90;;;;;;5005248;28;20336;-71
2024/01/26 05:08:11;;;;;;;8.30;4.40;;;4.40;99.90;;;;;;5005548;28;20213;-71
2024/01/26 05:10:37;;;;;;;11.17;4.60;;;4.30;99.90;;;;;;5005924;28;20711;-71
2024/01/26 05:13:05;;;;;;;13.23;4.97;;;4.30;99.90;;;;;;5005884;28;20215;-71
2024/01/26 05:15:33;;;;;;;11.23;5.60;;;4.30;99.90;;;;;;5005039;28;20210;-71
2024/01/26 05:18:00;;;;;;;13.77;5.83;;;4.30;99.90;;;;;;5008193;28;20645;-71
2024/01/26 05:20:27;;;;;;;11.73;5.13;;;4.30;99.90;;;;;;5010542;28;20543;-71
2024/01/26 05:22:53;;;;;;;10.30;4.30;;;4.30;99.90;;;;;;5017117;28;20300;-71
2024/01/26 05:25:20;;;;;;;13.37;4.43;;;4.30;99.90;;;;;;5011747;28;20664;-71
2024/01/26 05:27:47;;;;;;;14.37;4.70;;;4.30;99.90;;;;;;5021754;28;20301;-71
2024/01/26 05:30:14;;;;;;;7.07;4.30;;;4.30;99.90;;;;;;5016732;28;20241;-71
2024/01/26 05:32:43;;;;;;;9.83;5.10;;;4.30;99.90;;;;;;5013649;28;20604;-71
2024/01/26 05:35:10;;;;;;;9.30;4.57;;;4.30;99.90;;;;;;5022792;28;20197;-71
2024/01/26 05:37:37;;;;;;;13.17;5.40;;;4.30;99.90;;;;;;5015616;28;20229;-71
2024/01/26 05:40:06;;;;;;;10.47;4.70;;;4.30;99.90;;;;;;5010288;28;20209;-71
2024/01/26 05:42:33;;;;;;;11.73;4.93;;;4.20;99.90;;;;;;5016615;28;20201;-71
2024/01/26 05:45:00;;;;;;;10.20;5.10;;;4.20;99.90;;;;;;5007605;28;20296;-71
2024/01/26 05:47:26;;;;;;;11.93;5.03;;;4.20;99.90;;;;;;5002564;28;20293;-71
2024/01/26 05:49:55;;;;;;;12.90;5.40;;;4.20;99.90;;;;;;5005998;28;20265;-71
2024/01/26 05:52:22;;;;;;;13.90;5.03;;;4.20;99.90;;;;;;5015390;28;20230;-71
2024/01/26 05:54:48;;;;;;;13.47;4.77;;;4.20;99.90;;;;;;5015820;28;20300;-71
2024/01/26 05:57:16;;;;;;;12.23;4.43;;;4.20;99.90;;;;;;5025259;28;20324;-71
2024/01/26 05:59:43;;;;;;;11.83;4.90;;;4.20;99.90;;;;;;5016448;28;20267;-71
2024/01/26 06:02:09;;;;;;;15.90;5.13;;;4.20;99.90;;;;;;5007390;28;20201;-71
2024/01/26 06:04:36;;;;;;;10.77;4.87;;;4.20;99.90;;;;;;5010119;28;20713;-71
2024/01/26 06:07:05;;;;;;;11.20;4.30;;;4.20;99.90;;;;;;5026277;28;20317;-71
2024/01/26 06:09:32;;;;;;;13.93;4.77;;;4.20;99.90;;;;;;5028475;28;20316;-71
2024/01/26 06:11:59;;;;;;;12.60;4.80;;;4.20;99.90;;;;;;5019770;28;20301;-71
2024/01/26 06:14:26;;;;;;;11.43;4.73;;;4.20;99.90;;;;;;5022426;28;20292;-71
2024/01/26 06:16:53;;;;;;;14.73;4.77;;;4.10;99.90;;;;;;5018445;28;20292;-71
2024/01/26 06:19:20;;;;;;;8.73;4.83;;;4.10;99.90;;;;;;5016710;28;20768;-71
2024/01/26 06:21:47;;;;;;;12.03;4.57;;;4.10;99.90;;;;;;5019524;28;20204;-71
2024/01/26 06:24:15;;;;;;;10.30;4.73;;;4.20;99.90;;;;;;5019994;28;20209;-71
2024/01/26 06:26:42;;;;;;;11.30;4.60;;;4.20;99.90;;;;;;5016892;28;20951;-71
2024/01/26 06:29:09;;;;;;;13.23;4.63;;;4.20;99.90;;;;;;5017973;28;20243;-71
2024/01/26 06:31:36;;;;;;;9.67;4.50;;;4.20;99.90;;;;;;5011996;28;20256;-71
2024/01/26 06:34:02;;;;;;;13.83;5.23;;;4.30;99.90;;;;;;5013890;28;20202;-71
2024/01/26 06:36:29;;;;;;;14.33;5.20;;;4.30;99.90;;;;;;5021542;28;20224;-72
2024/01/26 06:38:56;;;;;;;16.73;5.00;;;4.30;99.90;;;;;;5022886;28;20217;-71
2024/01/26 06:41:25;;;;;;;11.30;4.90;;;4.20;99.90;;;;;;5017476;28;20316;-71
2024/01/26 06:43:51;;;;;;;12.47;5.13;;;4.20;99.90;;;;;;5025070;28;20207;-71
2024/01/26 06:46:22;;;;;;;12.37;5.23;;;4.20;99.90;;;;;;5025372;28;20207;-71
2024/01/26 06:48:49;;;;;;;8.73;4.87;;;4.20;99.90;;;;;;5014476;28;20252;-71
2024/01/26 06:51:16;;;;;;;13.67;5.47;;;4.20;99.90;;;;;;5013584;28;20229;-71
2024/01/26 06:53:43;;;;;;;15.40;4.53;;;4.20;99.90;;;;;;5019585;28;20316;-71
2024/01/26 06:56:10;;;;;;;8.37;4.97;;;4.20;99.90;;;;;;5013382;28;20546;-71
2024/01/26 06:58:38;;;;;;;12.87;4.93;;;4.20;99.90;;;;;;5018595;28;20236;-71
2024/01/26 07:01:05;;;;;;;11.87;5.20;;;4.20;99.90;;;;;;5019399;28;20295;-71
2024/01/26 07:03:32;;;;;;;8.87;4.73;;;4.20;99.90;;;;;;5016917;28;20283;-71
2024/01/26 07:05:59;;;;;;;13.73;4.73;;;4.20;99.90;;;;;;5019845;28;20204;-71
2024/01/26 07:08:25;;;;;;;12.13;4.70;;;4.00;99.90;;;;;;5017846;28;20292;-71
2024/01/26 07:10:52;;;;;;;15.33;5.50;;;4.00;99.90;;;;;;5013069;28;20320;-71
2024/01/26 07:13:20;;;;;;;11.37;5.03;;;4.10;99.90;;;;;;5015032;28;20276;-71
2024/01/26 07:15:48;;;;;;;8.00;4.73;;;4.10;99.90;;;;;;5018775;28;20520;-71
2024/01/26 07:18:15;;;;;;;10.53;5.33;;;4.10;99.90;;;;;;5018904;28;20283;-71
2024/01/26 07:20:41;;;;;;;12.13;5.37;;;4.10;99.90;;;;;;5020042;28;20292;-71
2024/01/26 07:23:08;;;;;;;14.10;5.33;;;4.10;99.90;;;;;;5015363;28;20834;-71
2024/01/26 07:25:35;;;;;;;13.23;5.80;;;4.20;99.90;;;;;;5020627;28;20668;-71
2024/01/26 07:28:05;;;;;;;18.13;5.53;;;4.20;99.90;;;;;;5019078;28;20625;-71
2024/01/26 07:30:32;;;;;;;13.40;5.33;;;4.20;99.90;;;;;;5015322;28;20997;-71
2024/01/26 07:33:00;;;;;;;13.17;6.00;;;4.20;99.90;;;;;;5024541;28;20304;-71
2024/01/26 07:35:27;;;;;;;15.63;5.23;;;4.10;99.90;;;;;;5013622;28;20223;-71
2024/01/26 07:37:54;;;;;;;10.40;5.17;;;4.10;99.90;;;;;;5012746;28;20665;-72
2024/01/26 07:40:21;;;;;;;14.10;5.17;;;4.10;99.90;;;;;;5013921;28;20264;-71
2024/01/26 07:42:48;;;;;;;10.93;5.50;;;4.10;99.90;;;;;;5017352;28;20806;-71
2024/01/26 07:45:15;;;;;;;15.07;6.07;;;4.10;99.90;;;;;;5021001;28;21030;-71
2024/01/26 07:47:42;;;;;;;11.43;5.27;;;4.10;99.90;;;;;;5014229;28;20280;-71
2024/01/26 07:50:10;;;;;;;14.67;5.60;;;4.10;99.90;;;;;;5016985;28;20673;-71
2024/01/26 07:52:38;;;;;;;12.63;5.57;;;4.10;99.90;;;;;;5014025;28;20229;-71
2024/01/26 07:55:05;;;;;;;14.00;5.50;;;4.20;99.90;;;;;;5015556;28;20213;-71
2024/01/26 07:57:32;;;;;;;13.77;5.60;;;4.20;99.90;;;;;;5015617;28;20399;-71
2024/01/26 07:59:59;;;;;;;16.80;6.00;;;4.20;99.90;;;;;;5015864;28;20233;-71
2024/01/26 08:02:26;;;;;;;12.63;5.77;;;4.20;99.90;;;;;;5017989;28;20308;-71
2024/01/26 08:04:54;;;;;;;17.53;5.67;;;4.30;99.90;;;;;;5013115;28;20739;-71
2024/01/26 08:07:22;;;;;;;17.93;5.87;;;4.30;99.90;;;;;;5012055;28;20635;-71
2024/01/26 08:09:49;;;;;;;9.83;4.97;;;4.30;99.90;;;;;;5008714;28;20312;-71
2024/01/26 08:12:16;;;;;;;13.57;5.90;;;4.20;99.90;;;;;;5011488;28;20320;-71
2024/01/26 08:14:43;;;;;;;16.00;6.07;;;4.10;99.90;;;;;;5010634;28;20205;-72
2024/01/26 08:17:10;;;;;;;11.63;5.70;;;4.20;99.90;;;;;;5013217;28;20284;-71
2024/01/26 08:19:37;;;;;;;7.93;5.13;;;4.20;99.90;;;;;;5008746;28;20216;-71
2024/01/26 08:22:05;;;;;;;10.90;5.17;;;4.30;99.90;;;;;;5015762;28;20324;-71
2024/01/26 08:24:33;;;;;;;15.37;5.70;;;4.30;99.90;;;;;;5014921;28;20220;-71
2024/01/26 08:27:00;;;;;;;11.00;5.80;;;4.30;99.90;;;;;;5006065;28;20237;-71
2024/01/26 08:29:27;;;;;;;12.83;5.67;;;4.40;99.90;;;;;;5018861;28;20221;-71
2024/01/26 08:31:54;;;;;;;12.80;5.43;;;4.50;99.90;;;;;;5024621;28;20361;-71
2024/01/26 08:34:20;;;;;;;14.57;6.03;;;4.50;99.90;;;;;;5023907;28;20240;-71
2024/01/26 08:36:47;;;;;;;13.07;5.90;;;4.50;99.90;;;;;;5025634;28;20317;-71
2024/01/26 08:39:14;;;;;;;11.43;5.53;;;4.60;99.90;;;;;;5022513;28;20288;-72
2024/01/26 08:41:43;;;;;;;13.43;5.60;;;4.50;99.90;;;;;;5025534;28;20299;-71
2024/01/26 08:44:10;;;;;;;13.10;5.77;;;4.50;99.90;;;;;;5026106;28;20701;-71
2024/01/26 08:46:38;;;;;;;10.30;5.03;;;4.50;99.90;;;;;;5025981;28;20223;-71
2024/01/26 08:49:06;;;;;;;17.23;5.97;;;4.60;99.90;;;;;;5025642;28;20220;-71
2024/01/26 08:51:33;;;;;;;11.77;5.43;;;4.50;99.90;;;;;;5025656;28;20228;-71
2024/01/26 08:54:00;;;;;;;15.70;6.07;;;4.60;99.90;;;;;;5023373;28;20291;-71
2024/01/26 08:56:27;;;;;;;13.30;5.97;;;4.60;99.90;;;;;;5014866;28;20644;-71
2024/01/26 08:58:55;;;;;;;15.00;4.93;;;4.70;99.90;;;;;;5009878;28;20284;-71
2024/01/26 09:01:25;;;;;;;8.07;5.13;;;4.70;99.90;;;;;;5024515;28;20850;-71
2024/01/26 09:03:52;;;;;;;16.90;6.03;;;4.70;99.90;;;;;;5009245;28;20202;-71
2024/01/26 09:06:19;;;;;;;15.90;5.30;;;4.70;99.90;;;;;;5016336;28;20263;-71
2024/01/26 09:08:46;;;;;;;11.53;5.30;;;4.70;99.90;;;;;;5019482;28;20282;-71
2024/01/26 09:11:14;;;;;;;8.40;4.83;;;4.80;99.90;;;;;;5011674;28;20307;-71
2024/01/26 09:13:41;;;;;;;15.27;5.83;;;4.70;99.90;;;;;;5019938;28;20201;-71
2024/01/26 09:16:12;;;;;;;14.50;5.57;;;4.80;99.90;;;;;;5011962;28;20564;-71
2024/01/26 09:18:39;;;;;;;16.13;5.90;;;4.90;99.90;;;;;;5016879;28;20280;-71
2024/01/26 09:21:06;;;;;;;13.20;5.40;;;4.90;99.90;;;;;;5017057;28;20297;-71
2024/01/26 09:23:33;;;;;;;11.40;5.33;;;5.00;99.90;;;;;;5015759;28;20283;-71
2024/01/26 09:26:00;;;;;;;15.00;5.80;;;5.00;99.90;;;;;;5013129;28;20625;-71
2024/01/26 09:28:27;;;;;;;13.60;5.43;;;5.00;99.90;;;;;;5014566;28;20213;-72
2024/01/26 09:30:54;;;;;;;14.67;6.03;;;5.10;99.90;;;;;;5013136;28;20237;-71
2024/01/26 09:33:22;;;;;;;10.23;5.00;;;5.00;99.90;;;;;;5016467;28;20298;-71
2024/01/26 09:35:49;;;;;;;14.47;5.43;;;5.00;99.90;;;;;;5009188;28;21343;-72
2024/01/26 09:38:18;;;;;;;16.50;7.77;;;5.10;99.90;;;;;;5018811;28;20343;-71
2024/01/26 09:40:45;;;;;;;10.20;5.47;;;5.10;99.90;;;;;;5019776;28;20218;-71
2024/01/26 09:43:12;;;;;;;15.70;6.03;;;5.20;99.90;;;;;;5021033;28;20739;-71
2024/01/26 09:45:39;;;;;;;14.57;5.43;;;5.30;99.90;;;;;;5015316;28;20233;-71
2024/01/26 09:48:07;;;;;;;11.23;5.23;;;5.30;99.90;;;;;;5012534;28;20297;-72
2024/01/26 09:50:35;;;;;;;12.77;5.67;;;5.30;99.90;;;;;;5028999;28;20224;-71
2024/01/26 09:53:04;;;;;;;12.53;5.60;;;5.30;99.90;;;;;;5019249;28;20967;-72
2024/01/26 09:55:33;;;;;;;15.03;5.90;;;5.30;99.90;;;;;;5011793;28;20208;-71
2024/01/26 09:58:00;;;;;;;10.10;5.50;;;5.40;99.90;;;;;;5025351;28;20607;-72
2024/01/26 10:00:26;;;;;;;14.50;5.73;;;5.40;99.90;;;;;;5019987;28;20864;-71
2024/01/26 10:02:53;;;;;;;14.33;5.80;;;5.40;99.90;;;;;;5023284;28;20284;-71
2024/01/26 10:05:21;;;;;;;9.67;5.10;;;5.50;99.90;;;;;;5022450;28;20240;-71
2024/01/26 10:07:50;;;;;;;15.43;5.40;;;5.50;99.90;;;;;;5019494;28;20302;-71
2024/01/26 10:10:17;;;;;;;17.73;6.00;;;5.50;99.90;;;;;;5016703;28;20208;-71
2024/01/26 10:12:44;;;;;;;14.37;5.73;;;5.50;99.90;;;;;;5010025;28;20734;-72
2024/01/26 10:15:13;;;;;;;12.27;5.60;;;5.50;99.90;;;;;;5008864;28;20209;-71
2024/01/26 10:17:40;;;;;;;10.70;5.30;;;5.60;99.90;;;;;;5022447;28;20235;-72
2024/01/26 10:20:09;;;;;;;14.33;5.80;;;5.60;99.90;;;;;;5010230;28;20675;-71
2024/01/26 10:22:37;;;;;;;7.87;4.70;;;5.70;99.90;;;;;;5008898;28;20252;-71
2024/01/26 10:25:06;;;;;;;10.87;5.37;;;5.80;99.90;;;;;;5011428;28;20771;-72
2024/01/26 10:27:34;;;;;;;12.47;5.30;;;5.80;99.90;;;;;;5016743;28;20201;-71
2024/01/26 10:30:01;;;;;;;13.00;5.53;;;5.80;99.90;;;;;;5018615;28;20200;-71
2024/01/26 10:32:29;;;;;;;11.80;5.87;;;5.90;99.90;;;;;;5019068;28;20224;-71
2024/01/26 10:34:58;;;;;;;10.10;5.00;;;5.90;99.90;;;;;;5016974;28;20291;-71
2024/01/26 10:37:28;;;;;;;12.17;5.43;;;6.00;99.90;;;;;;5021954;28;20231;-72
2024/01/26 10:39:56;;;;;;;11.17;5.50;;;6.00;99.90;;;;;;5018925;28;20197;-71
2024/01/26 10:42:25;;;;;;;15.10;5.40;;;6.00;99.90;;;;;;5015580;28;20223;-71
2024/01/26 10:44:54;;;;;;;12.33;5.13;;;6.00;99.90;;;;;;5014004;28;20292;-72
2024/01/26 10:47:22;;;;;;;11.70;5.30;;;6.10;99.90;;;;;;5016280;28;20275;-71
2024/01/26 10:49:50;;;;;;;11.23;5.37;;;6.10;99.90;;;;;;5020131;28;20744;-71
2024/01/26 10:52:19;;;;;;;7.37;4.70;;;6.20;99.90;;;;;;5015566;28;20802;-71
2024/01/26 10:54:47;;;;;;;10.87;5.33;;;6.30;99.90;;;;;;5016219;28;20202;-71
2024/01/26 10:57:14;;;;;;;12.07;5.70;;;6.30;99.90;;;;;;5016383;28;20205;-71
2024/01/26 10:59:43;;;;;;;9.33;5.30;;;6.40;99.90;;;;;;5018497;28;20285;-71
2024/01/26 11:02:14;;;;;;;12.27;5.23;;;6.50;99.90;;;;;;5016443;28;20227;-72
2024/01/26 11:04:42;;;;;;;10.97;5.30;;;6.50;99.90;;;;;;5018506;28;20297;-71
2024/01/26 11:07:09;;;;;;;10.97;5.37;;;6.60;99.90;;;;;;5014421;28;20652;-72
2024/01/26 11:09:38;;;;;;;8.27;4.90;;;6.60;99.90;;;;;;5015846;28;20205;-72
2024/01/26 11:12:08;;;;;;;11.60;5.20;;;6.60;99.90;;;;;;5016560;28;20708;-71
2024/01/26 11:14:35;;;;;;;8.20;5.20;;;6.60;99.90;;;;;;5016669;28;20324;-71
2024/01/26 11:17:12;;;;;;;10.50;4.63;;;6.60;99.90;;;;;;5015710;28;20292;-72
2024/01/26 11:19:48;;;;;;;11.90;5.10;;;6.60;99.90;;;;;;5014728;28;20252;-72
2024/01/26 11:22:15;;;;;;;6.60;4.87;;;6.60;99.90;;;;;;5012653;28;20281;-71
2024/01/26 11:24:44;;;;;;;10.03;4.37;;;6.50;99.90;;;;;;5011038;28;20201;-72
2024/01/26 11:27:11;;;;;;;7.60;5.07;;;6.50;99.90;;;;;;5016583;28;20204;-71
2024/01/26 11:29:40;;;;;;;8.10;4.60;;;6.50;99.90;;;;;;5019527;28;20200;-73
2024/01/26 11:32:17;;;;;;;8.67;4.87;;;6.50;99.90;;;;;;5015504;28;20351;-71
2024/01/26 11:34:45;;;;;;;7.53;4.43;;;6.50;99.90;;;;;;5018571;28;20284;-71
2024/01/26 11:37:13;;;;;;;6.90;4.90;;;6.50;99.90;;;;;;5015187;28;20217;-72
2024/01/26 11:39:40;;;;;;;9.47;5.03;;;6.50;99.90;;;;;;5014808;28;20297;-71
2024/01/26 11:42:11;;;;;;;6.57;4.90;;;6.70;99.90;;;;;;5015431;28;20205;-71
2024/01/26 11:44:41;;;;;;;7.23;5.10;;;6.70;99.90;;;;;;5019303;28;21030;-71
2024/01/26 11:47:09;;;;;;;6.60;4.63;;;6.80;99.90;;;;;;5018142;28;20681;-72
2024/01/26 11:49:38;;;;;;;7.83;4.53;;;6.80;99.90;;;;;;5014155;28;20205;-72
2024/01/26 11:52:05;;;;;;;4.57;4.10;;;6.70;99.90;;;;;;5014484;28;20259;-72
2024/01/26 11:54:32;;;;;;;8.10;4.50;;;6.70;99.90;;;;;;5014892;28;20205;-72
2024/01/26 11:57:01;;;;;;;6.80;4.33;;;6.70;99.90;;;;;;5019299;28;20292;-71
2024/01/26 11:59:28;;;;;;;7.30;4.43;;;6.70;99.90;;;;;;5017269;28;20251;-71
2024/01/26 12:01:55;;;;;;;10.13;4.40;;;6.70;99.90;;;;;;5015118;28;20209;-71
2024/01/26 12:04:23;;;;;;;8.27;4.60;;;6.70;99.90;;;;;;5006359;28;20304;-72
2024/01/26 12:06:52;;;;;;;10.83;4.90;;;6.70;99.90;;;;;;5003011;28;20233;-71
2024/01/26 12:09:19;;;;;;;6.73;4.23;;;6.70;99.90;;;;;;5009383;28;20205;-72
2024/01/26 12:11:46;;;;;;;7.43;4.83;;;6.70;99.90;;;;;;5005634;28;20261;-71
2024/01/26 12:14:13;;;;;;;7.43;4.83;;;6.60;99.90;;;;;;5014185;28;20236;-71
2024/01/26 12:16:40;;;;;;;10.83;4.80;;;6.70;99.90;;;;;;5012873;28;20293;-71
2024/01/26 12:19:07;;;;;;;8.37;4.73;;;6.70;99.90;;;;;;5015769;28;20289;-72
2024/01/26 12:21:35;;;;;;;6.93;5.37;;;6.70;99.90;;;;;;5021734;28;20626;-72
2024/01/26 12:24:09;;;;;;;9.03;5.40;;;6.70;99.90;;;;;;5016841;28;20292;-71
2024/01/26 12:26:36;;;;;;;8.13;4.70;;;6.60;99.90;;;;;;5018119;28;20276;-71
2024/01/26 12:29:03;;;;;;;9.07;5.87;;;6.60;99.90;;;;;;5016524;28;20238;-72
2024/01/26 12:31:32;;;;;;;8.93;5.30;;;6.60;99.90;;;;;;5011002;28;20315;-71
2024/01/26 12:33:59;;;;;;;7.87;4.77;;;6.60;99.90;;;;;;5019140;28;20205;-71
2024/01/26 12:36:31;;;;;;;6.73;4.83;;;6.50;99.90;;;;;;5013464;28;20244;-71
2024/01/26 12:38:58;;;;;;;8.60;5.10;;;6.60;99.90;;;;;;5014865;28;20372;-71
2024/01/26 12:41:27;;;;;;;9.23;5.83;;;6.60;99.90;;;;;;5016067;28;20284;-71
2024/01/26 12:43:55;;;;;;;27.97;17.10;;;6.60;99.90;;;;;;5014050;28;20293;-71
2024/01/26 12:46:22;;;;;;;6.67;5.10;;;6.70;99.90;;;;;;5015140;28;20216;-71
2024/01/26 12:48:49;;;;;;;10.60;5.40;;;6.70;99.90;;;;;;5007511;28;20216;-71